Prevelis — SYDL — position and weather

sailwx.info

Track history (hours):
 
Tides and Currents Weather Stations Pressure Air Temp Water Temp Dewpoint Dewpoint Depression Visibility Wind Speed Wind Dir Waves Ship Positions

Prevelis

Last reported at 2015-Sep-03 14:33 UTC. Time now 2015-Sep-03 15:09 UTC.
Position N 35°27' E 026°56'.

Length 143 m; draft 5.5 m.

Type: Passenger vessel. MMSI: 239297000.

Date/timePositionNaut miles runAvg speedWind from/ knotsBaromVisibWave heightAir tempDewpointWater temp
2015-Sep-03 14:33N 35°27' E 026°56'70 9.7
2015-Sep-03 07:23N 36°20' E 027°51'12 1.4
2015-Sep-02 22:31N 36°26' E 028°05'1717.7
2015-Sep-02 21:33N 36°17' E 027°47'11 9.7
2015-Sep-02 20:27N 36°11' E 027°36'1617.4
2015-Sep-02 19:33N 35°58' E 027°25'3411.0
2015-Sep-02 16:25N 35°25' E 027°12'1314.5
2015-Sep-02 15:33N 35°26' E 026°57'10 9.8
2015-Sep-02 14:33N 35°23' E 026°45'4313.1
2015-Sep-02 11:15N 35°19' E 025°52'1217.5
2015-Sep-02 10:33N 35°22' E 025°38'1818.2
2015-Sep-02 09:33N 35°22' E 025°16'6 5.9
2015-Sep-02 08:33N 35°21' E 025°09'0 0.0
2015-Sep-02 07:33N 35°21' E 025°09'1512.1
2015-Sep-02 06:17N 35°22' E 025°27'5213.9
2015-Sep-02 02:33N 35°22' E 026°31'1717.2
2015-Sep-02 01:33N 35°24' E 026°52'9 9.4
2015-Sep-02 00:33N 35°26' E 027°03'12 6.1
2015-Sep-01 22:33N 35°34' E 027°14'2512.7
2015-Sep-01 20:33N 35°58' E 027°24'3014.2
2015-Sep-01 18:26N 36°20' E 027°50'2116.1
2015-Sep-01 17:09N 36°28' E 028°14'0 0.2
2015-Sep-01 14:19N 36°27' E 028°14'911.7
2015-Sep-01 13:33N 36°27' E 028°03'4615.3
2015-Sep-01 10:32N 35°55' E 027°21'13 9.8
2015-Sep-01 09:10N 35°42' E 027°15'17 9.9
2015-Sep-01 07:27N 35°25' E 027°13'1314.5
2015-Sep-01 06:33N 35°26' E 026°57'1912.9
2015-Sep-01 05:04N 35°39' E 026°39'918.1
2015-Sep-01 04:33N 35°45' E 026°30'1918.3
2015-Sep-01 03:32N 35°57' E 026°13'1818.0
2015-Sep-01 02:33N 36°09' E 025°57'1414.3
2015-Sep-01 01:32N 36°21' E 025°46'1616.2
2015-Sep-01 00:33N 36°19' E 025°26'5 4.7
2015-Aug-31 23:33N 36°23' E 025°26'7 7.3
2015-Aug-31 22:33N 36°23' E 025°17'1817.2
2015-Aug-31 21:32N 36°31' E 024°58'2517.0
2015-Aug-31 20:04N 36°52' E 024°40'6117.3
2015-Aug-31 16:33N 37°37' E 023°48'1716.7
2015-Aug-31 15:33N 37°51' E 023°37'6 6.1
2015-Aug-31 14:33N 37°57' E 023°38'0 0.0
2015-Aug-31 13:33N 37°57' E 023°38'0 0.0
2015-Aug-31 12:34N 37°57' E 023°38'0 0.0
2015-Aug-31 11:33N 37°57' E 023°38'0 0.0
2015-Aug-31 10:33N 37°57' E 023°38'0 0.0
2015-Aug-31 09:33N 37°57' E 023°38'0 0.0
2015-Aug-31 08:33N 37°57' E 023°38'0 0.0
2015-Aug-31 07:33N 37°57' E 023°38'0 0.0
2015-Aug-31 06:34N 37°57' E 023°38'0 0.0
2015-Aug-31 05:33N 37°57' E 023°38'1010.2
2015-Aug-31 04:33N 37°47' E 023°42'10114.0
2015-Aug-30 21:23N 36°30' E 025°03'1417.2
2015-Aug-30 20:33N 36°23' E 025°18'6 5.9
2015-Aug-30 19:32N 36°23' E 025°26'5 4.7
2015-Aug-30 18:33N 36°19' E 025°27'1615.5
2015-Aug-30 17:32N 36°21' E 025°46'4 4.1
2015-Aug-30 16:33N 36°17' E 025°45'1817.7
2015-Aug-30 15:33N 35°60' E 025°52'63 8.8
2015-Aug-30 08:26N 35°26' E 026°57'28 6.4
2015-Aug-30 04:04N 35°49' E 027°16'917.9
2015-Aug-30 03:33N 35°57' E 027°22'4 0.3
2015-Aug-29 15:20N 35°60' E 027°26'36 9.3
2015-Aug-29 11:29N 35°25' E 027°12'1411.2
2015-Aug-29 10:15N 35°25' E 026°55'7110.6
2015-Aug-29 03:33N 36°10' E 025°47'1110.8
2015-Aug-29 02:33N 36°21' E 025°46'1717.2
2015-Aug-29 01:33N 36°19' E 025°25'5 4.4
2015-Aug-29 00:32N 36°23' E 025°26'1111.4
2015-Aug-28 23:33N 36°26' E 025°12'1717.5
2015-Aug-28 22:33N 36°34' E 024°54'8213.6
2015-Aug-28 16:33N 37°35' E 023°46'1717.3
2015-Aug-28 15:33N 37°51' E 023°37'6 5.8
2015-Aug-28 14:33N 37°57' E 023°38'0 0.0
2015-Aug-28 13:33N 37°57' E 023°38'0 0.0
2015-Aug-28 12:33N 37°57' E 023°38'0 0.0
2015-Aug-28 11:33N 37°57' E 023°38'0 0.0
2015-Aug-28 10:33N 37°57' E 023°38'0 0.0
2015-Aug-28 09:33N 37°57' E 023°38'0 0.0
2015-Aug-28 08:33N 37°57' E 023°38'0 0.0
2015-Aug-28 07:33N 37°57' E 023°38'0 0.0
2015-Aug-28 06:33N 37°57' E 023°38'1212.1
2015-Aug-28 05:33N 37°45' E 023°42'10116.9
2015-Aug-27 23:33N 36°29' E 025°06'1615.9
2015-Aug-27 22:33N 36°23' E 025°25'0 0.3
2015-Aug-27 21:33N 36°23' E 025°25'9 9.3
2015-Aug-27 20:33N 36°20' E 025°36'8 8.2
2015-Aug-27 19:33N 36°21' E 025°46'1514.6
2015-Aug-27 18:33N 36°09' E 025°57'1817.7
2015-Aug-27 17:33N 35°57' E 026°13'1717.4
2015-Aug-27 16:33N 35°46' E 026°30'1817.6
2015-Aug-27 15:33N 35°35' E 026°46'71 8.6
2015-Aug-27 07:16N 36°21' E 027°52'35 3.2
2015-Aug-26 20:07N 35°56' E 027°22'33 9.4
2015-Aug-26 16:33N 35°24' E 027°10'1211.7
2015-Aug-26 15:31N 35°25' E 026°55'21 1.2
2015-Aug-25 22:25N 35°39' E 027°14'71 3.5
2015-Aug-25 02:24N 36°10' E 025°56'1315.1
2015-Aug-25 01:32N 36°21' E 025°46'1413.8
2015-Aug-25 00:33N 36°18' E 025°29'6 5.6
2015-Aug-24 23:32N 36°23' E 025°26'6 6.5
2015-Aug-24 22:33N 36°23' E 025°18'10317.2
2015-Aug-24 16:34N 37°37' E 023°48'1716.9
2015-Aug-24 15:34N 37°51' E 023°37'6 5.5
2015-Aug-24 14:33N 37°57' E 023°38'  
Track history (hours):
 
Tides and Currents Weather Stations Pressure Air Temp Water Temp Dewpoint Dewpoint Depression Visibility Wind Speed Wind Dir Waves Ship Positions

Prevelis

Last reported at 2015-Sep-03 14:33 UTC. Time now 2015-Sep-03 15:09 UTC.
Position N 35°27' E 026°56'.

Length 143 m; draft 5.5 m.

Type: Passenger vessel. MMSI: 239297000.

Date/timePositionNaut miles runAvg speedWind from/ knotsBaromVisibWave heightAir tempDewpointWater temp
2015-Sep-03 14:33N 35°27' E 026°56'70 9.7
2015-Sep-03 07:23N 36°20' E 027°51'12 1.4
2015-Sep-02 22:31N 36°26' E 028°05'1717.7
2015-Sep-02 21:33N 36°17' E 027°47'11 9.7
2015-Sep-02 20:27N 36°11' E 027°36'1617.4
2015-Sep-02 19:33N 35°58' E 027°25'3411.0
2015-Sep-02 16:25N 35°25' E 027°12'1314.5
2015-Sep-02 15:33N 35°26' E 026°57'10 9.8
2015-Sep-02 14:33N 35°23' E 026°45'4313.1
2015-Sep-02 11:15N 35°19' E 025°52'1217.5
2015-Sep-02 10:33N 35°22' E 025°38'1818.2
2015-Sep-02 09:33N 35°22' E 025°16'6 5.9
2015-Sep-02 08:33N 35°21' E 025°09'0 0.0
2015-Sep-02 07:33N 35°21' E 025°09'1512.1
2015-Sep-02 06:17N 35°22' E 025°27'5213.9
2015-Sep-02 02:33N 35°22' E 026°31'1717.2
2015-Sep-02 01:33N 35°24' E 026°52'9 9.4
2015-Sep-02 00:33N 35°26' E 027°03'12 6.1
2015-Sep-01 22:33N 35°34' E 027°14'2512.7
2015-Sep-01 20:33N 35°58' E 027°24'3014.2
2015-Sep-01 18:26N 36°20' E 027°50'2116.1
2015-Sep-01 17:09N 36°28' E 028°14'0 0.2
2015-Sep-01 14:19N 36°27' E 028°14'911.7
2015-Sep-01 13:33N 36°27' E 028°03'4615.3
2015-Sep-01 10:32N 35°55' E 027°21'13 9.8
2015-Sep-01 09:10N 35°42' E 027°15'17 9.9
2015-Sep-01 07:27N 35°25' E 027°13'1314.5
2015-Sep-01 06:33N 35°26' E 026°57'1912.9
2015-Sep-01 05:04N 35°39' E 026°39'918.1
2015-Sep-01 04:33N 35°45' E 026°30'1918.3
2015-Sep-01 03:32N 35°57' E 026°13'1818.0
2015-Sep-01 02:33N 36°09' E 025°57'1414.3
2015-Sep-01 01:32N 36°21' E 025°46'1616.2
2015-Sep-01 00:33N 36°19' E 025°26'5 4.7
2015-Aug-31 23:33N 36°23' E 025°26'7 7.3
2015-Aug-31 22:33N 36°23' E 025°17'1817.2
2015-Aug-31 21:32N 36°31' E 024°58'2517.0
2015-Aug-31 20:04N 36°52' E 024°40'6117.3
2015-Aug-31 16:33N 37°37' E 023°48'1716.7
2015-Aug-31 15:33N 37°51' E 023°37'6 6.1
2015-Aug-31 14:33N 37°57' E 023°38'0 0.0
2015-Aug-31 13:33N 37°57' E 023°38'0 0.0
2015-Aug-31 12:34N 37°57' E 023°38'0 0.0
2015-Aug-31 11:33N 37°57' E 023°38'0 0.0
2015-Aug-31 10:33N 37°57' E 023°38'0 0.0
2015-Aug-31 09:33N 37°57' E 023°38'0 0.0
2015-Aug-31 08:33N 37°57' E 023°38'0 0.0
2015-Aug-31 07:33N 37°57' E 023°38'0 0.0
2015-Aug-31 06:34N 37°57' E 023°38'0 0.0
2015-Aug-31 05:33N 37°57' E 023°38'1010.2
2015-Aug-31 04:33N 37°47' E 023°42'10114.0
2015-Aug-30 21:23N 36°30' E 025°03'1417.2
2015-Aug-30 20:33N 36°23' E 025°18'6 5.9
2015-Aug-30 19:32N 36°23' E 025°26'5 4.7
2015-Aug-30 18:33N 36°19' E 025°27'1615.5
2015-Aug-30 17:32N 36°21' E 025°46'4 4.1
2015-Aug-30 16:33N 36°17' E 025°45'1817.7
2015-Aug-30 15:33N 35°60' E 025°52'63 8.8
2015-Aug-30 08:26N 35°26' E 026°57'28 6.4
2015-Aug-30 04:04N 35°49' E 027°16'917.9
2015-Aug-30 03:33N 35°57' E 027°22'4 0.3
2015-Aug-29 15:20N 35°60' E 027°26'36 9.3
2015-Aug-29 11:29N 35°25' E 027°12'1411.2
2015-Aug-29 10:15N 35°25' E 026°55'7110.6
2015-Aug-29 03:33N 36°10' E 025°47'1110.8
2015-Aug-29 02:33N 36°21' E 025°46'1717.2
2015-Aug-29 01:33N 36°19' E 025°25'5 4.4
2015-Aug-29 00:32N 36°23' E 025°26'1111.4
2015-Aug-28 23:33N 36°26' E 025°12'1717.5
2015-Aug-28 22:33N 36°34' E 024°54'8213.6
2015-Aug-28 16:33N 37°35' E 023°46'1717.3
2015-Aug-28 15:33N 37°51' E 023°37'6 5.8
2015-Aug-28 14:33N 37°57' E 023°38'0 0.0
2015-Aug-28 13:33N 37°57' E 023°38'0 0.0
2015-Aug-28 12:33N 37°57' E 023°38'0 0.0
2015-Aug-28 11:33N 37°57' E 023°38'0 0.0
2015-Aug-28 10:33N 37°57' E 023°38'0 0.0
2015-Aug-28 09:33N 37°57' E 023°38'0 0.0
2015-Aug-28 08:33N 37°57' E 023°38'0 0.0
2015-Aug-28 07:33N 37°57' E 023°38'0 0.0
2015-Aug-28 06:33N 37°57' E 023°38'1212.1
2015-Aug-28 05:33N 37°45' E 023°42'10116.9
2015-Aug-27 23:33N 36°29' E 025°06'1615.9
2015-Aug-27 22:33N 36°23' E 025°25'0 0.3
2015-Aug-27 21:33N 36°23' E 025°25'9 9.3
2015-Aug-27 20:33N 36°20' E 025°36'8 8.2
2015-Aug-27 19:33N 36°21' E 025°46'1514.6
2015-Aug-27 18:33N 36°09' E 025°57'1817.7
2015-Aug-27 17:33N 35°57' E 026°13'1717.4
2015-Aug-27 16:33N 35°46' E 026°30'1817.6
2015-Aug-27 15:33N 35°35' E 026°46'71 8.6
2015-Aug-27 07:16N 36°21' E 027°52'35 3.2
2015-Aug-26 20:07N 35°56' E 027°22'33 9.4
2015-Aug-26 16:33N 35°24' E 027°10'1211.7
2015-Aug-26 15:31N 35°25' E 026°55'21 1.2
2015-Aug-25 22:25N 35°39' E 027°14'71 3.5
2015-Aug-25 02:24N 36°10' E 025°56'1315.1
2015-Aug-25 01:32N 36°21' E 025°46'1413.8
2015-Aug-25 00:33N 36°18' E 025°29'6 5.6
2015-Aug-24 23:32N 36°23' E 025°26'6 6.5
2015-Aug-24 22:33N 36°23' E 025°18'10317.2
2015-Aug-24 16:34N 37°37' E 023°48'1716.9
2015-Aug-24 15:34N 37°51' E 023°37'6 5.5
2015-Aug-24 14:33N 37°57' E 023°38'  

Dump ship's entire track history